KGRR/GRR METAR and TAF weather

Enter ICAO airport designator
Station Type Date Time Source
KGRR METAR 2019/04/22 17:53 UTC NOAA

KGRR 221753Z 18015KT 10SM BKN180 BKN250 24/07 A3005 RMK AO2 SLP173 T02390072 10244 20128 58022


Station Type Date Time Source
KGRR Decoded METAR 2019/04/22 17:53 UTC NOAA

GERALD R. FORD INTERNATIONAL, MI, United States (KGRR) 42-53N 085-31W 239M
Apr 22, 2019 - 01:53 PM EDT / 2019.04.22 1753 UTC
Wind: from the S (180 degrees) at 17 MPH (15 KT):0
Visibility: 10 mile(s):0
Sky conditions: mostly cloudy
Temperature: 75.0 F (23.9 C)
Dew Point: 45.0 F (7.2 C)
Relative Humidity: 34%
Pressure (altimeter): 30.05 in. Hg (1017 hPa)
Pressure tendency: 0.06 inches (2.2 hPa) lower than three hours ago
ob: KGRR 221753Z 18015KT 10SM BKN180 BKN250 24/07 A3005 RMK AO2 SLP173 T02390072 10244 20128 58022
cycle: 18

Station Type Date Time Source
KGRR TAF 2019/04/22 18:48 UTC NOAA

TAF KGRR 221745Z 2218/2318 18015G25KT P6SM BKN150
FM230100 16012KT P6SM BKN100 WS020/20045KT
FM230400 17013G21KT 6SM -SHRA BR VCTS BKN070CB WS020/20045KT
FM230800 22015G25KT 6SM -SHRA BR BKN025
FM231100 27015G25KT 6SM -SHRA BR OVC008
FM231500 29014G22KT P6SM OVC015

Example: see airport list